Time;durP1;ratioP1;P1;durP2;ratioP2;P2;SDS_P1;SDS_P2;PMS_P1;PMS_P2;Temp;Humidity;BMP_temperature;BMP_pressure;BME280_temperature;BME280_humidity;BME280_pressure;Samples;Min_cycle;Max_cycle;Signal;HPM_P1;HPM_P2
2023/03/23 00:02:12;;;;;;;4.72;3.10;;;;;;;5.42;62.90;99028.75;7342400;19;20006;-66
2023/03/23 00:04:38;;;;;;;4.20;2.85;;;;;;;5.43;63.01;99027.81;7344467;19;20048;-66
2023/03/23 00:07:03;;;;;;;4.95;3.67;;;;;;;5.41;63.13;99025.28;7347307;19;20010;-67
2023/03/23 00:09:27;;;;;;;6.80;3.33;;;;;;;5.36;63.32;99021.19;7349666;19;20014;-65
2023/03/23 00:11:56;;;;;;;5.57;3.75;;;;;;;5.36;63.42;99014.13;7354683;19;20021;-66
2023/03/23 00:14:22;;;;;;;5.20;3.60;;;;;;;5.37;63.42;99021.09;7351295;19;20014;-67
2023/03/23 00:16:48;;;;;;;4.68;3.33;;;;;;;5.41;63.30;99019.13;7344907;19;20006;-66
2023/03/23 00:19:13;;;;;;;5.35;3.67;;;;;;;5.40;63.25;99017.44;7340357;19;20015;-66
2023/03/23 00:21:39;;;;;;;6.93;3.40;;;;;;;5.48;62.89;99020.47;7343945;19;20025;-65
2023/03/23 00:24:06;;;;;;;4.85;3.22;;;;;;;5.51;62.80;99014.13;7342113;19;20036;-64
2023/03/23 00:26:33;;;;;;;5.80;3.42;;;;;;;5.47;62.89;99014.31;7347546;19;20010;-65
2023/03/23 00:29:00;;;;;;;4.80;3.10;;;;;;;5.48;62.79;99012.53;7347495;19;20007;-66
2023/03/23 00:31:24;;;;;;;4.15;3.38;;;;;;;5.43;63.14;99009.28;7349456;19;20003;-66
2023/03/23 00:33:49;;;;;;;4.97;3.45;;;;;;;5.47;62.77;99003.75;7351098;19;20054;-66
2023/03/23 00:36:14;;;;;;;9.80;3.90;;;;;;;5.42;62.97;99016.38;7345883;19;20018;-66
2023/03/23 00:38:41;;;;;;;4.35;3.92;;;;;;;5.46;62.72;99015.25;7343388;19;20010;-67
2023/03/23 00:41:06;;;;;;;4.93;3.92;;;;;;;5.28;63.46;99010.25;7342415;19;20007;-66
2023/03/23 00:43:32;;;;;;;4.82;3.95;;;;;;;5.28;63.45;99008.44;7343439;19;20145;-65
2023/03/23 00:46:00;;;;;;;9.13;3.47;;;;;;;5.21;63.80;99007.09;7343818;19;20022;-66
2023/03/23 00:48:25;;;;;;;5.13;3.28;;;;;;;5.29;63.51;99001.38;7342235;19;20081;-69
2023/03/23 00:50:52;;;;;;;5.63;3.65;;;;;;;5.30;63.72;99005.72;7344637;19;20014;-72
2023/03/23 00:53:18;;;;;;;6.03;3.45;;;;;;;5.23;63.56;98996.44;7344495;19;20043;-67
2023/03/23 00:55:44;;;;;;;4.25;3.08;;;;;;;5.18;64.13;98993.25;7346041;19;20441;-68
2023/03/23 00:58:10;;;;;;;4.07;3.08;;;;;;;5.25;63.86;98998.06;7342348;19;20465;-68
2023/03/23 01:00:36;;;;;;;3.83;3.25;;;;;;;5.24;63.85;98996.34;7344751;19;20389;-67
2023/03/23 01:03:01;;;;;;;6.68;3.78;;;;;;;5.25;63.95;99000.69;7347769;19;20015;-69
2023/03/23 01:05:31;;;;;;;6.13;3.83;;;;;;;5.23;63.96;98997.28;7342810;19;20638;-67
2023/03/23 01:07:56;;;;;;;6.22;3.47;;;;;;;5.29;63.90;98998.72;7341765;19;20013;-69
2023/03/23 01:10:21;;;;;;;4.93;3.17;;;;;;;5.34;63.53;98997.50;7343074;19;20019;-71
2023/03/23 01:12:47;;;;;;;6.78;3.60;;;;;;;5.30;63.61;98998.63;7341232;19;20014;-66
2023/03/23 01:15:17;;;;;;;3.88;2.78;;;;;;;5.37;63.34;99001.75;7344522;19;20048;-65
2023/03/23 01:17:43;;;;;;;4.93;3.20;;;;;;;5.32;63.37;98988.81;7340813;19;20129;-64
2023/03/23 01:20:08;;;;;;;6.78;4.30;;;;;;;5.30;63.52;98989.88;7343347;19;20834;-65
2023/03/23 01:22:33;;;;;;;5.13;3.38;;;;;;;5.29;63.50;98988.16;7338599;19;20335;-66
2023/03/23 01:24:57;;;;;;;6.55;3.47;;;;;;;5.21;63.99;98978.03;7338518;19;20366;-68
2023/03/23 01:27:22;;;;;;;5.47;3.47;;;;;;;5.19;64.20;98977.31;7341364;19;20015;-64
2023/03/23 01:29:47;;;;;;;4.93;3.28;;;;;;;5.18;64.03;98975.59;7338327;19;20453;-66
2023/03/23 01:32:11;;;;;;;3.80;3.03;;;;;;;5.18;64.21;98980.88;7340330;19;20011;-66
2023/03/23 01:34:37;;;;;;;4.15;3.10;;;;;;;5.13;64.33;98966.22;7338641;19;20010;-66
2023/03/23 01:37:02;;;;;;;4.15;3.72;;;;;;;5.17;63.87;98973.88;7336760;19;20046;-66
2023/03/23 01:39:26;;;;;;;6.13;3.47;;;;;;;5.09;64.58;98974.34;7335935;19;20007;-66
2023/03/23 01:41:51;;;;;;;4.78;3.80;;;;;;;5.07;64.86;98975.38;7337956;19;20088;-66
2023/03/23 01:44:19;;;;;;;5.63;3.95;;;;;;;5.12;64.60;98968.03;7337557;19;20011;-67
2023/03/23 01:47:04;;;;;;;5.45;3.53;;;;;;;5.02;65.22;98964.22;7337740;19;20110;-66
2023/03/23 01:49:36;;;;;;;6.80;3.88;;;;;;;5.00;65.31;98960.81;7338013;19;20018;-68
2023/03/23 01:52:16;;;;;;;4.25;3.35;;;;;;;4.96;65.52;98960.19;7339324;19;20023;-69
2023/03/23 01:54:45;;;;;;;4.07;3.42;;;;;;;5.01;65.08;98955.47;7337488;19;20006;-68
2023/03/23 01:57:13;;;;;;;4.22;3.33;;;;;;;4.99;65.61;98951.19;7339093;19;20357;-67
2023/03/23 01:59:40;;;;;;;4.82;3.50;;;;;;;4.99;65.16;98940.63;7337633;19;20018;-68
2023/03/23 02:02:26;;;;;;;5.17;3.60;;;;;;;4.89;65.99;98942.13;7338197;19;20021;-68
2023/03/23 02:04:57;;;;;;;7.10;3.83;;;;;;;4.91;66.02;98953.47;7339120;19;20535;-69
2023/03/23 02:07:23;;;;;;;6.22;3.40;;;;;;;4.94;65.91;98950.63;7339271;19;20018;-69
2023/03/23 02:09:50;;;;;;;6.07;3.63;;;;;;;4.88;66.35;98956.28;7343345;19;20014;-67
2023/03/23 02:12:15;;;;;;;4.10;2.97;;;;;;;4.91;66.24;98948.19;7341550;19;20015;-69
2023/03/23 02:14:40;;;;;;;6.03;3.53;;;;;;;4.99;65.58;98945.91;7343217;19;20431;-69
2023/03/23 02:17:46;;;;;;;4.18;2.83;;;;;;;4.98;66.17;98947.72;7345574;19;20869;-70
2023/03/23 02:20:47;;;;;;;5.68;3.30;;;;;;;4.97;66.18;98940.72;7345463;19;20036;-68
2023/03/23 02:23:12;;;;;;;7.57;3.90;;;;;;;4.90;66.30;98943.81;7339286;19;20018;-69
2023/03/23 02:26:13;;;;;;;4.20;3.50;;;;;;;4.95;66.31;98942.63;7343137;19;20011;-67
2023/03/23 02:28:43;;;;;;;4.93;3.10;;;;;;;4.92;66.31;98957.81;7344849;19;20028;-68
2023/03/23 02:31:16;;;;;;;6.82;3.58;;;;;;;4.90;66.37;98942.03;7347807;19;20018;-67
2023/03/23 02:33:47;;;;;;;6.43;3.47;;;;;;;4.95;65.98;98947.06;7343795;19;20104;-68
2023/03/23 02:36:17;;;;;;;4.60;3.33;;;;;;;4.94;65.86;98948.00;7342265;19;20010;-76
2023/03/23 02:39:00;;;;;;;7.93;4.68;;;;;;;4.96;65.91;98946.13;7346947;19;20017;-72
2023/03/23 02:41:34;;;;;;;4.80;3.25;;;;;;;4.92;65.97;98947.22;7348786;19;20050;-71
2023/03/23 02:44:03;;;;;;;5.03;3.78;;;;;;;4.83;66.29;98951.28;7344649;19;20014;-72
2023/03/23 02:46:28;;;;;;;8.32;4.43;;;;;;;4.71;66.84;98952.84;7346979;19;20093;-73
2023/03/23 02:48:56;;;;;;;5.80;3.83;;;;;;;4.65;67.31;98949.69;7345742;19;20049;-73
2023/03/23 02:51:23;;;;;;;4.18;3.25;;;;;;;4.61;67.60;98941.13;7343460;19;20580;-70
2023/03/23 02:53:53;;;;;;;6.38;3.58;;;;;;;4.67;67.26;98946.03;7346096;19;20015;-71
2023/03/23 02:56:20;;;;;;;5.28;3.95;;;;;;;4.66;67.11;98951.41;7347102;19;20465;-77
2023/03/23 02:58:45;;;;;;;5.95;3.50;;;;;;;4.65;67.00;98950.56;7345888;19;20486;-75
2023/03/23 03:01:36;;;;;;;6.88;4.28;;;;;;;4.62;67.13;98953.41;7347828;19;20462;-70
2023/03/23 03:04:07;;;;;;;7.63;3.97;;;;;;;4.56;67.60;98947.59;7343671;19;20090;-71
2023/03/23 03:06:40;;;;;;;5.57;3.95;;;;;;;4.56;67.91;98940.53;7343969;19;20045;-71
2023/03/23 03:09:28;;;;;;;7.88;3.53;;;;;;;4.63;67.31;98936.59;7350798;19;20006;-75
2023/03/23 03:11:59;;;;;;;5.07;3.63;;;;;;;4.58;67.46;98946.59;7344439;19;20044;-69
2023/03/23 03:14:38;;;;;;;7.28;4.15;;;;;;;4.48;68.16;98944.56;7343640;19;20014;-70
2023/03/23 03:17:22;;;;;;;7.00;3.85;;;;;;;4.51;68.16;98939.13;7344501;19;20010;-67
2023/03/23 03:19:49;;;;;;;5.28;3.58;;;;;;;4.46;68.07;98939.38;7344180;19;20017;-69
2023/03/23 03:22:15;;;;;;;8.45;3.90;;;;;;;4.50;67.48;98938.28;7343827;19;20370;-69
2023/03/23 03:24:43;;;;;;;6.80;3.72;;;;;;;4.49;68.47;98944.47;7348144;19;20018;-68
2023/03/23 03:27:14;;;;;;;7.57;4.35;;;;;;;4.47;68.67;98933.16;7346856;19;20036;-68
2023/03/23 03:29:47;;;;;;;;;;;;;;;4.61;67.98;98937.63;7348011;19;20010;-67
2023/03/23 03:32:20;;;;;;;4.72;3.58;;;;;;;4.50;68.60;98940.91;7346788;19;19997;-67
2023/03/23 03:34:45;;;;;;;12.80;3.42;;;;;;;4.61;67.47;98935.84;7343972;19;20478;-66
2023/03/23 03:37:11;;;;;;;6.43;4.47;;;;;;;4.48;68.10;98926.09;7342969;19;20025;-67
2023/03/23 03:39:38;;;;;;;5.53;3.85;;;;;;;4.34;69.02;98935.66;7346882;19;20033;-70
2023/03/23 03:42:06;;;;;;;6.05;3.28;;;;;;;4.43;68.38;98933.41;7344561;19;20017;-69
2023/03/23 03:44:32;;;;;;;7.50;3.92;;;;;;;4.29;69.27;98934.19;7344997;19;20033;-69
2023/03/23 03:46:56;;;;;;;7.50;4.75;;;;;;;4.19;70.03;98927.75;7345566;19;20384;-69
2023/03/23 03:49:22;;;;;;;5.50;3.55;;;;;;;4.25;69.01;98924.78;7344666;19;20348;-70
2023/03/23 03:51:48;;;;;;;5.93;3.38;;;;;;;4.11;69.78;98922.91;7345780;19;20086;-69
2023/03/23 03:54:19;;;;;;;5.97;4.05;;;;;;;4.04;70.41;98923.38;7345310;19;20014;-70
2023/03/23 03:56:45;;;;;;;6.90;4.82;;;;;;;3.94;71.00;98920.41;7345050;19;20014;-69
2023/03/23 03:59:39;;;;;;;5.20;3.17;;;;;;;4.01;70.49;98922.59;7340975;19;20532;-67
2023/03/23 04:02:29;;;;;;;8.13;4.70;;;;;;;3.92;71.49;98924.91;7341787;19;20019;-68
2023/03/23 04:04:54;;;;;;;7.85;4.50;;;;;;;3.91;71.25;98915.28;7340940;19;20006;-69
2023/03/23 04:07:18;;;;;;;7.97;4.25;;;;;;;3.90;72.06;98929.41;7341305;19;20006;-69
2023/03/23 04:09:48;;;;;;;15.57;4.70;;;;;;;4.10;72.42;98923.00;7342427;19;20113;-68
2023/03/23 04:12:16;;;;;;;7.13;4.57;;;;;;;4.38;71.63;98915.22;7340337;19;20184;-68
2023/03/23 04:14:57;;;;;;;8.43;5.38;;;;;;;4.72;70.97;98917.59;7341411;19;20021;-69
2023/03/23 04:17:30;;;;;;;9.33;5.30;;;;;;;5.04;69.90;98906.88;7340327;19;20006;-67
2023/03/23 04:19:59;;;;;;;7.75;5.28;;;;;;;5.30;69.49;98900.84;7340791;19;20231;-68
2023/03/23 04:22:29;;;;;;;11.40;5.82;;;;;;;5.54;68.37;98892.31;7340442;19;20029;-68
2023/03/23 04:25:02;;;;;;;9.68;4.55;;;;;;;5.84;67.65;98906.25;7340463;19;20011;-71
2023/03/23 04:27:30;;;;;;;8.48;4.97;;;;;;;6.02;66.75;98901.59;7342237;19;20072;-67
2023/03/23 04:29:58;;;;;;;12.38;5.75;;;;;;;6.10;66.67;98908.09;7339539;19;20014;-67
2023/03/23 04:32:41;;;;;;;7.80;5.32;;;;;;;6.27;65.92;98904.34;7340540;19;20015;-69
2023/03/23 04:35:13;;;;;;;8.98;5.40;;;;;;;6.36;65.81;98893.16;7339660;19;20011;-69
2023/03/23 04:37:47;;;;;;;11.57;5.55;;;;;;;6.43;65.39;98893.63;7339393;19;20010;-70
2023/03/23 04:40:17;;;;;;;9.43;5.65;;;;;;;6.55;65.23;98912.16;7339460;19;20011;-69
2023/03/23 04:42:51;;;;;;;9.23;5.40;;;;;;;6.79;64.63;98901.72;7340210;19;20482;-69
2023/03/23 04:45:29;;;;;;;8.93;5.55;;;;;;;7.05;63.75;98901.75;7341914;19;20018;-69
2023/03/23 04:47:57;;;;;;;9.55;6.30;;;;;;;7.10;63.35;98902.28;7339494;19;20063;-70
2023/03/23 04:50:35;;;;;;;14.10;6.47;;;;;;;7.23;63.13;98892.50;7339836;19;20026;-70
2023/03/23 04:53:10;;;;;;;10.68;5.63;;;;;;;7.36;62.88;98898.66;7340225;19;20011;-71
2023/03/23 04:55:37;;;;;;;8.77;5.63;;;;;;;7.55;62.03;98898.22;7339491;19;20006;-69
2023/03/23 04:58:05;;;;;;;9.63;6.22;;;;;;;7.84;61.18;98896.13;7342532;19;20010;-69
2023/03/23 05:00:43;;;;;;;8.75;5.32;;;;;;;7.77;60.98;98889.56;7341841;19;20017;-70
2023/03/23 05:03:11;;;;;;;10.27;6.65;;;;;;;7.73;60.94;98888.94;7340013;19;20010;-70
2023/03/23 05:05:36;;;;;;;10.50;6.47;;;;;;;7.77;60.77;98894.88;7342299;19;20014;-68
2023/03/23 05:08:05;;;;;;;11.27;6.45;;;;;;;7.98;60.33;98893.31;7340954;19;20497;-67
2023/03/23 05:10:35;;;;;;;8.55;5.63;;;;;;;8.29;59.53;98903.38;7339580;19;20078;-69
2023/03/23 05:13:06;;;;;;;11.43;6.63;;;;;;;8.48;58.96;98902.03;7339815;19;20477;-69
2023/03/23 05:15:31;;;;;;;9.10;5.72;;;;;;;8.66;58.46;98906.00;7339439;19;20495;-69
2023/03/23 05:17:57;;;;;;;10.23;6.95;;;;;;;8.54;58.25;98901.59;7339175;19;20488;-68
2023/03/23 05:20:24;;;;;;;10.65;6.15;;;;;;;8.78;57.91;98896.25;7340507;19;20010;-68
2023/03/23 05:22:56;;;;;;;10.90;6.35;;;;;;;9.20;57.13;98905.38;7341718;19;20384;-68
2023/03/23 05:25:26;;;;;;;12.02;7.18;;;;;;;9.30;56.45;98895.72;7340799;19;20025;-69
2023/03/23 05:27:59;;;;;;;13.88;7.40;;;;;;;9.34;55.75;98903.34;7346760;19;19999;-68
2023/03/23 05:30:44;;;;;;;8.48;5.47;;;;;;;9.75;55.11;98897.41;7348026;19;20364;-68
2023/03/23 05:33:13;;;;;;;12.07;5.82;;;;;;;9.90;54.56;98899.81;7343591;19;20036;-69
2023/03/23 05:36:00;;;;;;;11.05;6.57;;;;;;;10.21;53.68;98895.53;7335644;19;20566;-68
2023/03/23 05:38:32;;;;;;;12.85;6.82;;;;;;;10.56;52.47;98893.47;7335304;19;20013;-68
2023/03/23 05:41:00;;;;;;;10.73;6.35;;;;;;;11.06;51.55;98891.88;7336848;19;20692;-69
2023/03/23 05:43:30;;;;;;;16.13;6.35;;;;;;;11.33;50.42;98893.16;7336761;19;20049;-69
2023/03/23 05:46:11;;;;;;;10.95;7.38;;;;;;;11.73;49.38;98880.69;7336398;19;20029;-69
2023/03/23 05:48:38;;;;;;;11.93;7.10;;;;;;;12.35;48.33;98890.28;7339564;19;20017;-69
2023/03/23 05:51:04;;;;;;;12.25;6.90;;;;;;;12.82;47.15;98885.91;7340228;19;20351;-70
2023/03/23 05:53:31;;;;;;;10.45;6.93;;;;;;;13.07;45.93;98892.50;7337744;19;20126;-70
2023/03/23 05:56:01;;;;;;;9.70;7.22;;;;;;;13.30;45.98;98885.88;7337293;19;20028;-70
2023/03/23 05:58:44;;;;;;;11.82;6.53;;;;;;;13.85;44.68;98890.44;7337324;19;20036;-73
2023/03/23 06:01:09;;;;;;;10.20;7.03;;;;;;;14.17;43.67;98886.31;7344974;19;20014;-69
2023/03/23 06:03:38;;;;;;;10.18;6.88;;;;;;;14.70;42.92;98888.22;7344837;19;20102;-70
2023/03/23 06:06:14;;;;;;;8.18;6.72;;;;;;;15.33;41.79;98874.59;7345497;19;20026;-70
2023/03/23 06:08:50;;;;;;;12.02;6.45;;;;;;;15.64;40.68;98883.03;7344633;19;20015;-70
2023/03/23 06:11:18;;;;;;;16.00;7.18;;;;;;;15.79;40.21;98884.13;7350436;19;20351;-68
2023/03/23 06:13:57;;;;;;;13.48;7.25;;;;;;;16.47;39.07;98869.72;7348360;19;20021;-69
2023/03/23 06:16:22;;;;;;;8.32;6.25;;;;;;;16.51;38.25;98874.59;7349023;19;20015;-70
2023/03/23 06:18:53;;;;;;;11.52;7.45;;;;;;;16.62;38.20;98862.69;7346994;19;20011;-69
2023/03/23 06:21:27;;;;;;;8.98;6.90;;;;;;;17.50;37.55;98858.22;7348265;19;20014;-70
2023/03/23 06:23:59;;;;;;;15.18;7.50;;;;;;;17.94;36.42;98868.56;7348379;19;20035;-69
2023/03/23 06:26:37;;;;;;;9.23;7.18;;;;;;;18.50;35.35;98868.25;7347352;19;20025;-69
2023/03/23 06:29:10;;;;;;;8.70;6.50;;;;;;;18.83;34.92;98859.94;7350006;19;20034;-69
2023/03/23 06:31:44;;;;;;;9.52;6.70;;;;;;;19.41;34.28;98863.81;7352813;19;20046;-68
2023/03/23 06:34:09;;;;;;;10.60;6.38;;;;;;;19.94;33.26;98863.56;7349624;19;20014;-70
2023/03/23 06:36:58;;;;;;;11.38;6.82;;;;;;;20.46;32.81;98856.28;7343595;19;20019;-70
2023/03/23 06:39:34;;;;;;;13.05;7.82;;;;;;;21.15;31.83;98862.78;7342809;19;20023;-70
2023/03/23 06:42:13;;;;;;;11.18;7.43;;;;;;;21.00;31.22;98845.75;7348466;19;20018;-68
2023/03/23 06:44:45;;;;;;;9.45;6.70;;;;;;;21.12;30.95;98852.31;7347379;19;20052;-68
2023/03/23 06:47:11;;;;;;;9.00;7.38;;;;;;;21.74;30.41;98854.25;7347996;19;20023;-71
2023/03/23 06:49:40;;;;;;;11.43;6.93;;;;;;;21.67;29.71;98850.69;7350779;19;20020;-71
2023/03/23 06:52:18;;;;;;;11.38;7.28;;;;;;;22.34;29.38;98856.25;7347926;19;20029;-68
2023/03/23 06:54:43;;;;;;;10.57;7.70;;;;;;;22.37;28.81;98854.97;7349842;19;20015;-70
2023/03/23 06:57:10;;;;;;;8.98;6.53;;;;;;;21.43;29.37;98846.56;7351183;19;20010;-70
2023/03/23 06:59:35;;;;;;;10.60;6.68;;;;;;;21.81;29.66;98848.84;7354921;19;20050;-72
2023/03/23 07:02:00;;;;;;;13.77;7.57;;;;;;;22.27;29.15;98851.81;7355084;19;20068;-69
2023/03/23 07:04:25;;;;;;;11.13;7.05;;;;;;;22.54;28.89;98842.72;7356068;19;20359;-69
2023/03/23 07:07:02;;;;;;;9.52;6.60;;;;;;;23.20;28.11;98845.50;7357056;19;20018;-68
2023/03/23 07:09:32;;;;;;;10.98;6.88;;;;;;;24.25;27.49;98836.31;7358538;19;20059;-68
2023/03/23 07:11:57;;;;;;;11.95;7.07;;;;;;;24.99;25.88;98841.09;7348110;19;20030;-68
2023/03/23 07:14:36;;;;;;;9.07;7.00;;;;;;;25.41;25.37;98833.19;7353795;19;20014;-68
2023/03/23 07:17:03;;;;;;;9.05;7.28;;;;;;;25.05;25.33;98834.78;7351846;19;20030;-68
2023/03/23 07:19:30;;;;;;;9.65;6.82;;;;;;;25.10;25.80;98853.19;7349131;19;20033;-68
2023/03/23 07:21:57;;;;;;;9.35;6.82;;;;;;;25.40;25.01;98839.69;7349530;19;20033;-68
2023/03/23 07:24:24;;;;;;;9.35;6.78;;;;;;;25.65;24.94;98835.91;7345870;19;20015;-68
2023/03/23 07:27:08;;;;;;;15.85;8.68;;;;;;;26.52;23.89;98838.47;7348242;19;20349;-71
2023/03/23 07:29:35;;;;;;;8.15;6.60;;;;;;;26.49;23.80;98839.75;7350266;19;20013;-66
2023/03/23 07:32:12;;;;;;;11.73;6.72;;;;;;;26.35;23.75;98839.09;7347569;19;20010;-68
2023/03/23 07:34:37;;;;;;;11.05;6.88;;;;;;;25.48;24.52;98823.88;7351663;19;20118;-68
2023/03/23 07:37:16;;;;;;;11.63;7.45;;;;;;;25.30;24.90;98834.75;7347340;19;20018;-66
2023/03/23 07:39:45;;;;;;;8.48;6.45;;;;;;;25.76;24.46;98836.22;7343416;19;20007;-67
2023/03/23 07:42:10;;;;;;;13.68;6.88;;;;;;;26.67;23.84;98825.19;7346511;19;20017;-68
2023/03/23 07:44:46;;;;;;;10.10;6.55;;;;;;;27.37;23.06;98819.88;7358555;19;20052;-67
2023/03/23 07:47:13;;;;;;;9.68;6.05;;;;;;;28.30;22.40;98814.28;7350543;19;20478;-67
2023/03/23 07:49:38;;;;;;;9.27;6.80;;;;;;;28.25;21.57;98814.19;7342764;19;20319;-69
2023/03/23 07:52:23;;;;;;;7.57;6.05;;;;;;;27.22;22.04;98812.13;7349430;19;20094;-68
2023/03/23 07:54:49;;;;;;;9.85;6.68;;;;;;;26.59;22.54;98803.66;7346349;19;20007;-68
2023/03/23 07:57:20;;;;;;;7.82;6.07;;;;;;;25.41;23.69;98801.28;7342360;19;20010;-68
2023/03/23 07:59:50;;;;;;;7.97;5.90;;;;;;;25.96;23.44;98795.88;7343029;19;20014;-67
2023/03/23 08:02:15;;;;;;;7.72;6.55;;;;;;;26.21;23.02;98810.25;7343465;19;20007;-69
2023/03/23 08:04:47;;;;;;;10.90;6.00;;;;;;;25.00;24.01;98798.31;7342519;19;20019;-70
2023/03/23 08:07:16;;;;;;;7.38;5.97;;;;;;;25.27;23.63;98791.56;7342808;19;20519;-70
2023/03/23 08:09:54;;;;;;;9.80;5.97;;;;;;;26.13;23.38;98807.84;7343526;19;20007;-69
2023/03/23 08:12:59;;;;;;;9.23;6.32;;;;;;;26.09;22.47;98805.78;7340576;19;20011;-68
2023/03/23 08:16:03;;;;;;;10.27;6.65;;;;;;;27.36;21.97;98796.31;7340042;19;20015;-69
2023/03/23 08:18:54;;;;;;;8.25;6.25;;;;;;;27.50;21.49;98797.72;7339894;19;20015;-68
2023/03/23 08:21:34;;;;;;;11.38;6.43;;;;;;;26.72;21.97;98790.63;7343254;19;20015;-67
2023/03/23 08:24:08;;;;;;;7.40;6.25;;;;;;;27.80;21.26;98783.91;7343257;19;20524;-67
2023/03/23 08:26:50;;;;;;;9.43;6.20;;;;;;;28.46;20.75;98785.25;7343810;19;20078;-71
2023/03/23 08:29:35;;;;;;;;;;;;;;;30.88;20.31;98798.06;7347848;19;20082;-70
2023/03/23 08:32:30;;;;;;;8.18;6.65;;;;;;;28.98;19.84;98779.63;7345372;19;20013;-69
2023/03/23 08:35:27;;;;;;;7.53;6.55;;;;;;;29.16;19.84;98768.38;7347544;19;20018;-69
2023/03/23 08:38:24;;;;;;;9.15;6.13;;;;;;;28.94;19.99;98775.69;7348631;19;20010;-70
2023/03/23 08:41:09;;;;;;;8.93;6.40;;;;;;;30.71;19.37;98778.09;7343662;19;20167;-70
2023/03/23 08:43:48;;;;;;;10.73;6.78;;;;;;;30.91;18.65;98764.53;7345583;19;19998;-69
2023/03/23 08:46:36;;;;;;;9.93;7.38;;;;;;;30.88;18.70;98743.03;7345375;19;20022;-71
2023/03/23 08:49:32;;;;;;;10.85;7.03;;;;;;;30.10;18.78;98754.59;7342436;19;20430;-70
2023/03/23 08:52:32;;;;;;;8.00;7.03;;;;;;;31.20;18.52;98744.94;7337999;19;20419;-70
2023/03/23 08:55:38;;;;;;;8.45;7.55;;;;;;;30.24;18.60;98739.38;7337971;19;20003;-69
2023/03/23 08:58:12;;;;;;;8.73;7.50;;;;;;;30.50;18.67;98729.44;7336648;19;20023;-68
2023/03/23 09:00:56;;;;;;;8.55;6.80;;;;;;;30.98;18.44;98734.00;7341527;19;19999;-69
2023/03/23 09:03:40;;;;;;;7.22;6.50;;;;;;;30.89;18.59;98722.66;7338526;19;20439;-68
2023/03/23 09:06:38;;;;;;;8.98;6.90;;;;;;;31.33;18.03;98716.94;7339218;19;20014;-69
2023/03/23 09:09:08;;;;;;;12.63;7.10;;;;;;;31.48;17.50;98705.19;7337551;19;20466;-68
2023/03/23 09:11:35;;;;;;;10.05;7.18;;;;;;;30.26;18.67;98720.66;7343924;19;20002;-70
2023/03/23 09:14:01;;;;;;;6.82;5.82;;;;;;;30.86;18.48;98705.84;7341425;19;20011;-69
2023/03/23 09:16:26;;;;;;;9.25;6.75;;;;;;;31.06;18.27;98705.97;7341961;19;20006;-69
2023/03/23 09:18:51;;;;;;;7.60;5.72;;;;;;;31.98;17.73;98702.66;7343625;19;20119;-69
2023/03/23 09:21:15;;;;;;;7.65;6.68;;;;;;;31.14;17.93;98694.53;7343155;19;20006;-68
2023/03/23 09:23:43;;;;;;;9.75;6.55;;;;;;;31.49;17.94;98693.06;7344555;19;20361;-69
2023/03/23 09:26:08;;;;;;;7.90;6.85;;;;;;;30.90;18.33;98694.06;7338925;19;20040;-70
2023/03/23 09:28:33;;;;;;;8.77;6.30;;;;;;;31.20;18.05;98679.69;7338274;19;20010;-69
2023/03/23 09:30:58;;;;;;;7.47;6.57;;;;;;;31.35;17.73;98693.53;7338258;19;20003;-69
2023/03/23 09:33:24;;;;;;;8.07;6.35;;;;;;;30.73;17.98;98682.34;7338086;19;20011;-70
2023/03/23 09:35:48;;;;;;;7.45;6.72;;;;;;;30.35;18.35;98683.38;7344913;19;20063;-69
2023/03/23 09:38:13;;;;;;;9.23;6.97;;;;;;;30.60;18.12;98674.53;7346777;19;20042;-70
2023/03/23 09:40:48;;;;;;;7.30;6.55;;;;;;;30.07;18.74;98675.41;7345482;19;20347;-69
2023/03/23 09:43:19;;;;;;;8.60;6.38;;;;;;;30.84;18.53;98669.50;7346268;19;20028;-70
2023/03/23 09:45:48;;;;;;;11.90;6.75;;;;;;;30.65;18.49;98667.16;7345574;19;20055;-68
2023/03/23 09:48:19;;;;;;;11.60;6.85;;;;;;;30.45;18.44;98653.22;7345892;19;20010;-69
2023/03/23 09:50:46;;;;;;;7.30;6.28;;;;;;;30.34;18.62;98648.72;7347864;19;20036;-69
2023/03/23 09:53:14;;;;;;;9.98;6.15;;;;;;;29.27;19.14;98647.47;7346165;19;20006;-69
2023/03/23 09:55:38;;;;;;;6.65;5.95;;;;;;;28.72;19.53;98644.75;7348138;19;20055;-69
2023/03/23 09:58:15;;;;;;;8.25;6.03;;;;;;;29.55;19.34;98648.41;7347119;19;20011;-71
2023/03/23 10:00:46;;;;;;;7.75;6.57;;;;;;;29.39;19.25;98650.13;7346107;19;20017;-71
2023/03/23 10:03:17;;;;;;;12.65;6.28;;;;;;;29.77;18.88;98643.72;7347837;19;20025;-72
2023/03/23 10:05:45;;;;;;;9.98;6.03;;;;;;;29.83;18.92;98631.69;7346214;19;20018;-70
2023/03/23 10:08:32;;;;;;;10.27;6.43;;;;;;;30.95;18.27;98629.94;7347024;19;20025;-71
2023/03/23 10:11:17;;;;;;;6.00;5.43;;;;;;;30.46;18.31;98630.13;7344836;19;20029;-70
2023/03/23 10:14:19;;;;;;;6.03;5.30;;;;;;;30.42;18.67;98622.66;7346476;19;20022;-71
2023/03/23 10:17:17;;;;;;;5.78;5.18;;;;;;;30.06;18.80;98614.09;7346565;19;20011;-70
2023/03/23 10:19:53;;;;;;;5.70;5.10;;;;;;;28.62;19.30;98624.56;7343918;19;20002;-72
2023/03/23 10:22:32;;;;;;;6.50;5.50;;;;;;;28.16;20.09;98615.53;7345437;19;20023;-70
2023/03/23 10:25:13;;;;;;;6.40;5.47;;;;;;;25.48;22.21;98624.66;7344749;19;20003;-71
2023/03/23 10:27:47;;;;;;;7.80;5.70;;;;;;;22.73;25.05;98618.25;7344852;19;20014;-71
2023/03/23 10:30:18;;;;;;;12.43;5.78;;;;;;;21.06;26.59;98627.34;7345572;19;20021;-69
2023/03/23 10:33:11;;;;;;;6.05;4.80;;;;;;;20.23;27.90;98616.34;7342614;19;20010;-70
2023/03/23 10:35:55;;;;;;;7.53;5.45;;;;;;;18.98;29.65;98620.41;7341950;19;20119;-69
2023/03/23 10:38:26;;;;;;;7.60;5.33;;;;;;;18.00;31.14;98623.28;7347940;19;20045;-71
2023/03/23 10:40:58;;;;;;;10.50;6.13;;;;;;;17.34;32.50;98621.19;7342928;19;20029;-70
2023/03/23 10:43:24;;;;;;;6.22;4.90;;;;;;;16.90;32.99;98624.44;7343638;19;20014;-68
2023/03/23 10:45:59;;;;;;;8.95;5.82;;;;;;;16.90;33.41;98620.91;7341646;19;20025;-72
2023/03/23 10:48:38;;;;;;;5.38;4.82;;;;;;;16.75;33.45;98620.78;7342798;19;20109;-72
2023/03/23 10:51:06;;;;;;;8.30;5.80;;;;;;;16.48;33.72;98626.56;7344379;19;20450;-71
2023/03/23 10:53:47;;;;;;;9.02;5.07;;;;;;;16.53;33.17;98627.72;7344508;19;20007;-71
2023/03/23 10:56:27;;;;;;;7.90;5.00;;;;;;;15.73;35.12;98634.84;7349841;19;20413;-72
2023/03/23 10:58:53;;;;;;;9.00;5.45;;;;;;;15.51;35.07;98624.72;7350834;19;20015;-71
2023/03/23 11:01:20;;;;;;;5.85;4.72;;;;;;;14.98;36.26;98625.94;7351711;19;20019;-70
2023/03/23 11:03:50;;;;;;;7.15;4.70;;;;;;;14.85;36.61;98629.06;7351577;19;20096;-69
2023/03/23 11:06:26;;;;;;;5.93;4.68;;;;;;;15.01;36.23;98622.91;7348477;19;20026;-68
2023/03/23 11:09:01;;;;;;;10.65;4.50;;;;;;;14.92;36.68;98623.03;7344004;19;20019;-69
2023/03/23 11:11:29;;;;;;;7.95;5.03;;;;;;;14.56;37.35;98628.56;7343555;19;20465;-70
2023/03/23 11:14:32;;;;;;;6.05;4.60;;;;;;;14.90;36.47;98625.88;7344940;19;20485;-69
2023/03/23 11:17:02;;;;;;;5.93;4.47;;;;;;;14.68;37.28;98621.91;7343926;19;20090;-68
2023/03/23 11:19:30;;;;;;;9.68;5.07;;;;;;;14.82;37.33;98618.63;7345294;19;20073;-70
2023/03/23 11:22:15;;;;;;;6.45;5.10;;;;;;;14.87;37.53;98613.63;7343373;19;20011;-68
2023/03/23 11:24:43;;;;;;;11.93;5.88;;;;;;;14.93;37.43;98614.81;7343110;19;20022;-69
2023/03/23 11:27:09;;;;;;;9.77;5.57;;;;;;;15.01;37.50;98619.41;7343167;19;20078;-69
2023/03/23 11:29:35;;;;;;;5.40;4.70;;;;;;;14.97;37.53;98620.72;7343511;19;20386;-72
2023/03/23 11:32:00;;;;;;;8.43;4.80;;;;;;;15.00;37.41;98615.03;7340835;19;20015;-68
2023/03/23 11:34:40;;;;;;;6.35;4.53;;;;;;;15.21;36.69;98623.47;7340924;19;20015;-76
2023/03/23 11:37:19;;;;;;;7.43;4.40;;;;;;;15.05;37.36;98626.94;7341596;19;20042;-68
2023/03/23 11:40:16;;;;;;;11.68;4.85;;;;;;;15.10;37.13;98613.88;7343695;19;20007;-68
2023/03/23 11:42:49;;;;;;;6.22;4.60;;;;;;;14.97;37.58;98631.44;7345837;19;20025;-68
2023/03/23 11:45:19;;;;;;;10.77;5.30;;;;;;;14.90;37.73;98626.72;7351776;19;20368;-68
2023/03/23 11:48:00;;;;;;;7.53;5.35;;;;;;;14.82;38.00;98617.78;7346609;19;20014;-79
2023/03/23 11:50:28;;;;;;;6.47;4.82;;;;;;;14.41;38.63;98631.00;7343953;19;20014;-68
2023/03/23 11:52:58;;;;;;;8.07;4.82;;;;;;;14.60;38.33;98635.31;7352790;19;20014;-67
2023/03/23 11:55:52;;;;;;;6.95;4.72;;;;;;;14.62;38.35;98632.47;7349048;19;20720;-68
2023/03/23 11:58:20;;;;;;;6.60;4.78;;;;;;;14.31;38.97;98629.41;7361344;19;20770;-78
2023/03/23 12:00:53;;;;;;;6.63;4.97;;;;;;;14.37;39.20;98620.72;7358661;19;20111;-78
2023/03/23 12:03:18;;;;;;;6.13;4.45;;;;;;;14.47;39.00;98624.16;7356332;19;20090;-81